Time;durP1;ratioP1;P1;durP2;ratioP2;P2;SDS_P1;SDS_P2;PMS_P1;PMS_P2;Temp;Humidity;BMP_temperature;BMP_pressure;BME280_temperature;BME280_humidity;BME280_pressure;Samples;Min_cycle;Max_cycle;Signal;HPM_P1;HPM_P2
2023/01/01 00:01:10;;;;;;;4.95;2.13;;;14.00;99.90;;;;;;5055048;28;20375;-64
2023/01/01 00:03:36;;;;;;;6.40;2.58;;;14.00;99.90;;;;;;5054910;28;20029;-64
2023/01/01 00:06:11;;;;;;;7.35;2.22;;;14.30;99.90;;;;;;5054585;28;20033;-64
2023/01/01 00:08:37;;;;;;;5.28;2.38;;;14.30;99.90;;;;;;5054756;28;20278;-64
2023/01/01 00:11:04;;;;;;;6.22;2.10;;;14.30;99.90;;;;;;5054401;28;20080;-64
2023/01/01 00:13:30;;;;;;;5.40;2.10;;;14.10;99.90;;;;;;5054865;28;20086;-64
2023/01/01 00:16:21;;;;;;;5.18;2.13;;;13.90;99.90;;;;;;5054704;28;20041;-64
2023/01/01 00:18:47;;;;;;;9.02;2.63;;;14.10;99.90;;;;;;5054545;28;20094;-64
2023/01/01 00:21:13;;;;;;;7.75;2.88;;;13.80;99.90;;;;;;5054093;28;20025;-64
2023/01/01 00:23:39;;;;;;;7.72;2.72;;;13.60;99.90;;;;;;5054522;28;20043;-64
2023/01/01 00:26:14;;;;;;;6.57;3.10;;;13.30;99.90;;;;;;5054471;28;20048;-64
2023/01/01 00:28:40;;;;;;;10.55;4.00;;;13.30;99.90;;;;;;5054365;28;20047;-64
2023/01/01 00:31:10;;;;;;;6.00;3.03;;;13.20;99.90;;;;;;5054295;28;20536;-64
2023/01/01 00:33:36;;;;;;;6.22;2.63;;;13.30;99.90;;;;;;5054371;28;20043;-63
2023/01/01 00:36:07;;;;;;;8.10;2.88;;;13.10;99.90;;;;;;5054796;28;20033;-64
2023/01/01 00:38:33;;;;;;;6.55;2.65;;;12.90;99.90;;;;;;5053669;28;20041;-64
2023/01/01 00:40:58;;;;;;;7.20;2.78;;;12.70;99.90;;;;;;5054524;28;20075;-64
2023/01/01 00:43:24;;;;;;;6.72;2.72;;;12.90;99.90;;;;;;5053918;28;20481;-64
2023/01/01 00:45:53;;;;;;;8.63;2.55;;;12.80;99.90;;;;;;5054241;28;20025;-64
2023/01/01 00:48:20;;;;;;;9.13;2.90;;;13.00;99.90;;;;;;5053713;28;20500;-64
2023/01/01 00:50:46;;;;;;;10.02;2.92;;;13.00;99.90;;;;;;5054214;28;20082;-64
2023/01/01 00:53:12;;;;;;;7.18;2.63;;;13.00;99.90;;;;;;5053991;28;20044;-64
2023/01/01 00:55:41;;;;;;;6.40;2.42;;;13.20;99.90;;;;;;5053952;28;20469;-64
2023/01/01 00:58:07;;;;;;;9.13;2.40;;;13.40;99.90;;;;;;5054287;28;20025;-64
2023/01/01 01:00:33;;;;;;;7.60;2.58;;;13.20;99.90;;;;;;5053611;28;20127;-64
2023/01/01 01:03:00;;;;;;;10.55;2.90;;;13.10;99.90;;;;;;5053456;28;20074;-64
2023/01/01 01:05:25;;;;;;;4.70;2.25;;;13.00;99.90;;;;;;5053816;28;20378;-65
2023/01/01 01:07:51;;;;;;;8.50;2.70;;;12.80;99.90;;;;;;5053716;28;20031;-64
2023/01/01 01:10:20;;;;;;;4.70;2.10;;;12.80;99.90;;;;;;5053711;28;20044;-64
2023/01/01 01:12:46;;;;;;;10.27;2.22;;;13.00;99.90;;;;;;5053511;28;20490;-64
2023/01/01 01:15:12;;;;;;;10.25;3.35;;;13.10;99.90;;;;;;5053737;28;20021;-64
2023/01/01 01:17:38;;;;;;;7.40;2.40;;;13.10;99.90;;;;;;5053006;28;20040;-64
2023/01/01 01:20:05;;;;;;;6.30;2.22;;;13.00;99.90;;;;;;5053548;28;20021;-64
2023/01/01 01:22:30;;;;;;;5.20;2.08;;;12.90;99.90;;;;;;5053549;28;20060;-64
2023/01/01 01:24:56;;;;;;;7.72;2.38;;;12.80;99.90;;;;;;5053272;28;20053;-64
2023/01/01 01:27:22;;;;;;;5.93;2.30;;;12.80;99.90;;;;;;5053725;28;20288;-64
2023/01/01 01:29:48;;;;;;;5.30;2.55;;;12.60;99.90;;;;;;5053140;28;20021;-64
2023/01/01 01:32:14;;;;;;;9.13;2.80;;;12.40;99.90;;;;;;5052881;28;20480;-64
2023/01/01 01:34:39;;;;;;;4.90;2.50;;;12.30;99.90;;;;;;5053315;28;20067;-64
2023/01/01 01:37:05;;;;;;;6.75;2.47;;;12.20;99.90;;;;;;5053059;28;20064;-64
2023/01/01 01:39:31;;;;;;;8.30;5.00;;;12.40;99.90;;;;;;5052891;28;20017;-64
2023/01/01 01:41:57;;;;;;;7.78;2.40;;;12.40;99.90;;;;;;5052968;28;20398;-64
2023/01/01 01:44:48;;;;;;;7.07;3.03;;;12.20;99.90;;;;;;5052851;28;20059;-64
2023/01/01 01:47:15;;;;;;;8.07;3.20;;;12.10;99.90;;;;;;5052479;28;20032;-64
2023/01/01 01:49:44;;;;;;;6.05;2.80;;;11.80;99.90;;;;;;5052744;28;20021;-65
2023/01/01 01:52:10;;;;;;;8.90;3.05;;;11.80;99.90;;;;;;5052780;28;20087;-64
2023/01/01 01:54:36;;;;;;;9.25;3.00;;;11.40;99.90;;;;;;5052602;28;20029;-64
2023/01/01 01:57:08;;;;;;;11.38;3.38;;;11.20;99.90;;;;;;5052886;28;20112;-65
2023/01/01 01:59:47;;;;;;;5.38;2.55;;;11.20;99.90;;;;;;5052860;28;20017;-64
2023/01/01 02:02:29;;;;;;;8.35;2.75;;;11.30;99.90;;;;;;5052120;28;20040;-64
2023/01/01 02:04:55;;;;;;;5.97;2.50;;;11.40;99.90;;;;;;5052865;28;20072;-64
2023/01/01 02:07:22;;;;;;;7.22;3.05;;;11.40;99.90;;;;;;5052373;28;20049;-64
2023/01/01 02:09:48;;;;;;;7.30;2.50;;;11.40;99.90;;;;;;5052386;28;20045;-64
2023/01/01 02:12:13;;;;;;;7.75;2.50;;;11.70;99.90;;;;;;5052413;28;20370;-64
2023/01/01 02:14:39;;;;;;;7.07;2.47;;;11.70;99.90;;;;;;5052282;28;20048;-64
2023/01/01 02:17:23;;;;;;;8.30;2.60;;;11.50;99.90;;;;;;5052187;28;20064;-64
2023/01/01 02:20:01;;;;;;;7.38;2.13;;;11.80;99.90;;;;;;5052443;28;20071;-64
2023/01/01 02:22:35;;;;;;;6.78;2.78;;;11.80;99.90;;;;;;5052232;28;20032;-65
2023/01/01 02:25:38;;;;;;;8.27;2.00;;;11.70;99.90;;;;;;5052447;28;20064;-64
2023/01/01 02:28:23;;;;;;;6.70;2.10;;;12.30;99.90;;;;;;5051987;28;20608;-64
2023/01/01 02:30:50;;;;;;;7.65;2.13;;;12.10;99.90;;;;;;5051729;28;20032;-64
2023/01/01 02:33:20;;;;;;;6.03;2.03;;;12.20;99.90;;;;;;5052213;28;20029;-64
2023/01/01 02:35:58;;;;;;;6.38;2.30;;;11.80;99.90;;;;;;5050971;28;20025;-64
2023/01/01 02:38:50;;;;;;;8.82;3.67;;;12.00;99.90;;;;;;5052125;28;20063;-64
2023/01/01 02:41:25;;;;;;;9.18;2.50;;;12.10;99.90;;;;;;5050704;28;20108;-64
2023/01/01 02:43:51;;;;;;;9.23;2.25;;;12.20;99.90;;;;;;5052227;28;20029;-64
2023/01/01 02:46:17;;;;;;;8.35;2.55;;;12.20;99.90;;;;;;5051855;28;20029;-64
2023/01/01 02:48:50;;;;;;;10.45;2.10;;;11.80;99.90;;;;;;5050793;28;20044;-64
2023/01/01 02:51:20;;;;;;;4.93;2.20;;;11.80;99.90;;;;;;5052196;28;20476;-64
2023/01/01 02:53:51;;;;;;;8.85;2.35;;;12.10;99.90;;;;;;5052065;28;20112;-64
2023/01/01 02:56:40;;;;;;;5.53;2.08;;;13.00;99.90;;;;;;5052312;28;20025;-64
2023/01/01 03:02:15;;;;;;;8.73;2.75;;;13.70;99.90;;;;;;5052024;28;20087;-64
2023/01/01 03:05:12;;;;;;;7.47;2.63;;;14.00;99.90;;;;;;5051915;28;20036;-64
2023/01/01 03:07:56;;;;;;;9.45;2.28;;;13.50;99.90;;;;;;5052191;28;20122;-64
2023/01/01 03:10:46;;;;;;;8.00;2.45;;;13.50;99.90;;;;;;5051496;28;20043;-64
2023/01/01 03:13:50;;;;;;;12.35;4.63;;;13.20;99.90;;;;;;5051491;28;20047;-64
2023/01/01 03:16:29;;;;;;;13.27;2.67;;;12.90;99.90;;;;;;5010373;28;20197;-64
2023/01/01 03:19:18;;;;;;;8.27;2.38;;;12.70;99.90;;;;;;5010208;28;20096;-64
2023/01/01 03:21:49;;;;;;;7.00;2.13;;;12.30;99.90;;;;;;5010237;28;20116;-64
2023/01/01 03:24:40;;;;;;;7.32;2.38;;;12.00;99.90;;;;;;5009832;28;20046;-64
2023/01/01 03:27:33;;;;;;;6.13;2.25;;;11.80;99.90;;;;;;5009543;28;20121;-64
2023/01/01 03:30:02;;;;;;;9.98;3.13;;;11.70;99.90;;;;;;5010214;28;20117;-64
2023/01/01 03:35:24;;;;;;;11.05;5.28;;;11.40;99.90;;;;;;5010181;28;20105;-64
2023/01/01 03:37:54;;;;;;;9.85;3.40;;;11.60;99.90;;;;;;5010194;28;20534;-64
2023/01/01 03:40:21;;;;;;;6.65;2.38;;;11.40;99.90;;;;;;5009971;28;20041;-64
2023/01/01 03:42:54;;;;;;;8.60;2.45;;;11.10;99.90;;;;;;5012973;28;20030;-64
2023/01/01 03:45:36;;;;;;;7.45;2.30;;;10.80;99.90;;;;;;5012947;28;20062;-64
2023/01/01 03:48:04;;;;;;;6.55;2.50;;;10.70;99.90;;;;;;5013683;28;20486;-64
2023/01/01 03:50:48;;;;;;;8.10;3.13;;;10.70;99.90;;;;;;5013183;28;20028;-64
2023/01/01 03:53:41;;;;;;;9.77;4.55;;;10.80;99.90;;;;;;5025500;28;20554;-64
2023/01/01 03:56:22;;;;;;;15.52;6.68;;;10.80;99.90;;;;;;5032022;28;20026;-64
2023/01/01 03:58:54;;;;;;;16.35;6.85;;;10.70;99.90;;;;;;5034693;28;20029;-64
2023/01/01 04:01:29;;;;;;;21.00;9.52;;;10.50;99.90;;;;;;5034973;28;20386;-64
2023/01/01 04:03:56;;;;;;;19.42;8.35;;;10.20;99.90;;;;;;5034793;28;20034;-64
2023/01/01 04:06:22;;;;;;;31.80;14.98;;;10.10;99.90;;;;;;5035109;28;20029;-64
2023/01/01 04:08:52;;;;;;;56.40;23.35;;;10.00;99.90;;;;;;5035166;28;20031;-64
2023/01/01 04:14:07;;;;;;;36.45;14.23;;;9.70;99.90;;;;;;5054939;28;20508;-64
2023/01/01 04:16:33;;;;;;;14.80;4.80;;;9.70;99.90;;;;;;5054712;28;20021;-64
2023/01/01 04:18:59;;;;;;;9.65;2.67;;;9.60;99.90;;;;;;5054947;28;20032;-65
2023/01/01 04:21:24;;;;;;;10.65;2.33;;;9.50;99.90;;;;;;5054740;28;20029;-63
2023/01/01 04:23:50;;;;;;;6.72;2.50;;;9.30;99.90;;;;;;5054359;28;20486;-64
2023/01/01 04:26:16;;;;;;;11.23;3.20;;;9.30;99.90;;;;;;5054176;28;20029;-64
2023/01/01 04:28:42;;;;;;;15.57;3.97;;;9.20;99.90;;;;;;5054298;28;20555;-64
2023/01/01 04:31:08;;;;;;;9.57;2.55;;;9.10;99.90;;;;;;5054424;28;20021;-64
2023/01/01 04:33:34;;;;;;;9.57;3.03;;;9.20;99.90;;;;;;5054633;28;20051;-64
2023/01/01 04:36:08;;;;;;;13.63;3.55;;;9.10;99.90;;;;;;5054322;28;20029;-64
2023/01/01 04:38:34;;;;;;;10.43;3.38;;;9.00;99.90;;;;;;5054191;28;20033;-64
2023/01/01 04:41:01;;;;;;;9.90;3.05;;;8.90;99.90;;;;;;5054200;28;20608;-64
2023/01/01 04:43:31;;;;;;;8.70;2.55;;;8.90;99.90;;;;;;5054001;28;20127;-65
2023/01/01 04:45:58;;;;;;;7.40;2.70;;;8.80;99.90;;;;;;5054257;28;20491;-64
2023/01/01 04:48:24;;;;;;;10.20;2.40;;;8.80;99.90;;;;;;5054072;28;20251;-64
2023/01/01 04:51:03;;;;;;;10.98;2.90;;;8.80;99.90;;;;;;5053903;28;20029;-64
2023/01/01 04:53:30;;;;;;;8.00;2.60;;;8.90;99.90;;;;;;5052834;28;20588;-64
2023/01/01 04:56:01;;;;;;;11.18;3.08;;;8.70;99.90;;;;;;5053946;28;20060;-64
2023/01/01 04:58:27;;;;;;;11.20;2.47;;;8.50;99.90;;;;;;5053976;28;20025;-64
2023/01/01 05:00:53;;;;;;;7.45;2.35;;;8.50;99.90;;;;;;5053752;28;20025;-64
2023/01/01 05:03:19;;;;;;;8.82;2.22;;;8.50;99.90;;;;;;5053558;28;20494;-64
2023/01/01 05:05:44;;;;;;;10.35;2.47;;;8.40;99.90;;;;;;5053757;28;20021;-64
2023/01/01 05:08:10;;;;;;;8.98;2.65;;;8.30;99.90;;;;;;5053711;28;20448;-64
2023/01/01 05:10:36;;;;;;;9.57;2.42;;;8.20;99.90;;;;;;5052925;28;20049;-64
2023/01/01 05:13:05;;;;;;;6.13;2.33;;;8.10;99.90;;;;;;5054021;28;20104;-64
2023/01/01 05:15:33;;;;;;;8.50;2.60;;;8.10;99.90;;;;;;5053500;28;20056;-64
2023/01/01 05:17:59;;;;;;;9.60;2.45;;;8.00;99.90;;;;;;5053479;28;20052;-64
2023/01/01 05:20:25;;;;;;;8.60;2.63;;;8.00;99.90;;;;;;5053477;28;20059;-64
2023/01/01 05:22:50;;;;;;;7.82;2.42;;;8.00;99.90;;;;;;5053414;28;20032;-65
2023/01/01 05:25:16;;;;;;;7.85;2.55;;;7.90;99.90;;;;;;5053156;28;20033;-64
2023/01/01 05:27:42;;;;;;;8.23;2.58;;;7.80;99.90;;;;;;5053249;28;20394;-64
2023/01/01 05:30:08;;;;;;;7.45;2.70;;;7.70;99.90;;;;;;5053020;28;20096;-64
2023/01/01 05:32:36;;;;;;;8.20;2.50;;;7.70;99.90;;;;;;5053186;28;20021;-64
2023/01/01 05:35:01;;;;;;;6.90;2.60;;;7.70;99.90;;;;;;5053277;28;20039;-64
2023/01/01 05:37:27;;;;;;;11.90;3.22;;;7.70;99.90;;;;;;5053207;28;20436;-64
2023/01/01 05:39:53;;;;;;;10.10;3.30;;;7.70;99.90;;;;;;5052428;28;20029;-64
2023/01/01 05:42:18;;;;;;;13.98;3.70;;;7.40;99.90;;;;;;5053341;28;20108;-64
2023/01/01 05:44:44;;;;;;;9.63;3.30;;;7.50;99.90;;;;;;5052915;28;20025;-64
2023/01/01 05:47:11;;;;;;;9.40;2.95;;;7.40;99.90;;;;;;5053010;28;20031;-64
2023/01/01 05:49:36;;;;;;;13.35;3.60;;;7.30;99.90;;;;;;5052758;28;20029;-64
2023/01/01 05:52:02;;;;;;;10.57;2.63;;;7.40;99.90;;;;;;5053149;28;20052;-64
2023/01/01 05:54:28;;;;;;;8.50;2.83;;;7.40;99.90;;;;;;5052553;28;20044;-64
2023/01/01 05:56:54;;;;;;;7.28;2.90;;;7.30;99.90;;;;;;5052831;28;20036;-64
2023/01/01 05:59:19;;;;;;;9.00;3.00;;;7.30;99.90;;;;;;5052665;28;20024;-64
2023/01/01 06:01:45;;;;;;;9.45;3.25;;;7.30;99.90;;;;;;5052692;28;20062;-64
2023/01/01 06:04:11;;;;;;;9.48;3.20;;;7.60;99.90;;;;;;5052393;28;20029;-64
2023/01/01 06:06:36;;;;;;;7.55;3.25;;;7.50;99.90;;;;;;5052545;28;20025;-64
2023/01/01 06:09:03;;;;;;;8.20;2.90;;;7.60;99.90;;;;;;5052070;28;20028;-64
2023/01/01 06:11:30;;;;;;;7.95;3.05;;;7.50;99.90;;;;;;5052822;28;20052;-64
2023/01/01 06:13:59;;;;;;;7.57;3.22;;;7.50;99.90;;;;;;5052503;28;20053;-64
2023/01/01 06:16:25;;;;;;;8.85;2.88;;;7.60;99.90;;;;;;5052344;28;20017;-64
2023/01/01 06:18:51;;;;;;;10.70;2.90;;;7.70;99.90;;;;;;5052456;28;20104;-64
2023/01/01 06:21:22;;;;;;;11.70;3.30;;;8.20;99.90;;;;;;5052598;28;20025;-64
2023/01/01 06:23:48;;;;;;;6.65;2.53;;;8.40;99.90;;;;;;5052155;28;20083;-64
2023/01/01 06:26:25;;;;;;;5.80;2.55;;;8.00;99.90;;;;;;5052335;28;20029;-64
2023/01/01 06:28:51;;;;;;;9.40;3.00;;;7.80;99.90;;;;;;5051377;28;20358;-64
2023/01/01 06:31:19;;;;;;;10.55;3.80;;;7.80;99.90;;;;;;5052205;28;20115;-64
2023/01/01 06:33:45;;;;;;;9.45;3.95;;;7.90;99.90;;;;;;5052152;28;20025;-64
2023/01/01 06:36:14;;;;;;;12.93;4.50;;;8.30;99.90;;;;;;5051995;28;20060;-64
2023/01/01 06:38:43;;;;;;;10.82;4.72;;;8.30;99.90;;;;;;5052083;28;20028;-63
2023/01/01 06:41:14;;;;;;;11.90;5.30;;;8.30;99.90;;;;;;5051933;28;20517;-64
2023/01/01 06:43:40;;;;;;;15.43;5.75;;;8.20;99.90;;;;;;5052421;28;20065;-64
2023/01/01 06:46:15;;;;;;;12.52;4.95;;;8.00;99.90;;;;;;5052047;28;20057;-64
2023/01/01 06:48:41;;;;;;;11.07;4.63;;;8.20;99.90;;;;;;5052003;28;20028;-64
2023/01/01 06:51:10;;;;;;;10.93;4.63;;;8.20;99.90;;;;;;5051603;28;20021;-64
2023/01/01 06:53:35;;;;;;;11.90;4.80;;;8.30;99.90;;;;;;5051872;28;20029;-64
2023/01/01 06:56:01;;;;;;;9.90;4.38;;;8.40;99.90;;;;;;5052309;28;20444;-64
2023/01/01 06:58:27;;;;;;;11.98;5.05;;;8.60;99.90;;;;;;5052063;28;20032;-64
2023/01/01 07:00:53;;;;;;;10.20;4.80;;;8.80;99.90;;;;;;5051838;28;20471;-64
2023/01/01 07:03:18;;;;;;;9.13;4.50;;;8.90;99.90;;;;;;5052034;28;20382;-64
2023/01/01 07:05:44;;;;;;;9.48;4.40;;;9.20;99.90;;;;;;5051173;28;20104;-64
2023/01/01 07:08:10;;;;;;;9.70;4.53;;;9.20;99.90;;;;;;5052261;28;20036;-64
2023/01/01 07:10:35;;;;;;;10.50;4.85;;;9.20;99.90;;;;;;5051407;28;20524;-64
2023/01/01 07:13:01;;;;;;;10.93;4.85;;;9.30;99.90;;;;;;5051854;28;20032;-64
2023/01/01 07:15:27;;;;;;;13.40;6.57;;;9.30;99.90;;;;;;5052434;28;20021;-64
2023/01/01 07:17:53;;;;;;;12.07;6.47;;;9.60;99.90;;;;;;5055710;28;20032;-64
2023/01/01 07:20:18;;;;;;;8.65;5.30;;;9.60;99.90;;;;;;5055655;28;20107;-64
2023/01/01 07:22:45;;;;;;;11.40;5.30;;;9.60;99.90;;;;;;5055639;28;20036;-64
2023/01/01 07:25:14;;;;;;;7.25;4.72;;;9.70;99.90;;;;;;5055650;28;20424;-64
2023/01/01 07:27:39;;;;;;;9.70;4.80;;;9.60;99.90;;;;;;5055605;28;20028;-63
2023/01/01 07:30:06;;;;;;;7.70;4.97;;;9.70;99.90;;;;;;5055459;28;20096;-64
2023/01/01 07:32:31;;;;;;;9.52;5.53;;;9.80;99.90;;;;;;5055758;28;20025;-64
2023/01/01 07:34:57;;;;;;;8.30;5.60;;;9.90;99.90;;;;;;5055246;28;20040;-64
2023/01/01 07:37:26;;;;;;;10.85;5.65;;;9.90;99.90;;;;;;5055415;28;20035;-64
2023/01/01 07:39:51;;;;;;;8.65;5.30;;;10.00;99.90;;;;;;5055402;28;20079;-64
2023/01/01 07:42:17;;;;;;;9.05;5.20;;;10.10;99.90;;;;;;5055436;28;20478;-64
2023/01/01 07:44:43;;;;;;;7.07;5.15;;;10.10;99.90;;;;;;5055326;28;20116;-64
2023/01/01 07:47:35;;;;;;;12.07;5.53;;;10.10;99.90;;;;;;5055580;28;20445;-64
2023/01/01 07:50:01;;;;;;;11.63;5.20;;;10.30;99.90;;;;;;5053717;28;20044;-64
2023/01/01 07:52:26;;;;;;;9.65;5.57;;;10.30;99.90;;;;;;5055183;28;20105;-64
2023/01/01 07:54:52;;;;;;;9.10;5.40;;;10.50;99.90;;;;;;5055478;28;20033;-64
2023/01/01 07:57:18;;;;;;;10.63;5.85;;;10.50;99.90;;;;;;5055132;28;20017;-64
2023/01/01 07:59:43;;;;;;;9.20;5.18;;;10.50;99.90;;;;;;5054989;28;20388;-64
2023/01/01 08:02:11;;;;;;;9.15;5.03;;;10.60;99.90;;;;;;5055244;28;20021;-64
2023/01/01 08:04:37;;;;;;;8.32;5.20;;;10.70;99.90;;;;;;5054624;28;20033;-64
2023/01/01 08:07:03;;;;;;;9.82;5.20;;;10.70;99.90;;;;;;5054881;28;20504;-64
2023/01/01 08:09:29;;;;;;;7.97;5.03;;;10.80;99.90;;;;;;5054488;28;20048;-64
2023/01/01 08:11:57;;;;;;;9.00;4.88;;;10.90;99.90;;;;;;5054935;28;20501;-64
2023/01/01 08:14:24;;;;;;;8.73;5.47;;;11.00;99.90;;;;;;5054869;28;20020;-64
2023/01/01 08:16:50;;;;;;;8.13;5.45;;;11.00;99.90;;;;;;5054872;28;20025;-64
2023/01/01 08:19:16;;;;;;;9.68;5.22;;;11.00;99.90;;;;;;5054220;28;20029;-64
2023/01/01 08:21:41;;;;;;;8.73;4.90;;;11.10;99.90;;;;;;5054841;28;20025;-64
2023/01/01 08:24:07;;;;;;;8.75;5.43;;;11.10;99.90;;;;;;5054469;28;20120;-64
2023/01/01 08:26:35;;;;;;;7.43;4.97;;;11.10;99.90;;;;;;5053830;28;20067;-64
2023/01/01 08:29:07;;;;;;;10.27;5.10;;;11.10;99.90;;;;;;5053651;28;20036;-64
2023/01/01 08:31:32;;;;;;;13.40;5.50;;;11.10;99.90;;;;;;5054732;28;20045;-64
2023/01/01 08:33:58;;;;;;;8.27;5.20;;;11.20;99.90;;;;;;5053876;28;20057;-64
2023/01/01 08:36:24;;;;;;;11.07;5.53;;;11.20;99.90;;;;;;5054468;28;20086;-64
2023/01/01 08:38:50;;;;;;;9.13;5.60;;;11.30;99.90;;;;;;5054211;28;20025;-64
2023/01/01 08:41:15;;;;;;;7.18;5.13;;;11.30;99.90;;;;;;5052879;28;20100;-64
2023/01/01 08:43:41;;;;;;;9.02;5.20;;;11.40;99.90;;;;;;5054511;28;20033;-64
2023/01/01 08:46:07;;;;;;;9.32;5.75;;;11.50;99.90;;;;;;5054082;28;20025;-64
2023/01/01 08:48:33;;;;;;;10.40;5.20;;;11.60;99.90;;;;;;5053813;28;20509;-65
2023/01/01 08:50:59;;;;;;;7.38;4.70;;;11.70;99.90;;;;;;5054071;28;20021;-64
2023/01/01 08:53:29;;;;;;;9.25;4.93;;;11.80;99.90;;;;;;5054238;28;20447;-64
2023/01/01 08:56:00;;;;;;;7.13;5.00;;;12.00;99.90;;;;;;5054117;28;20071;-64
2023/01/01 08:58:26;;;;;;;8.95;5.30;;;12.20;99.90;;;;;;5054271;28;20078;-65
2023/01/01 09:00:52;;;;;;;7.30;4.88;;;12.10;99.90;;;;;;5053679;28;20033;-64
2023/01/01 09:03:19;;;;;;;8.05;5.10;;;12.20;99.90;;;;;;5053481;28;20044;-64
2023/01/01 09:05:45;;;;;;;8.27;4.60;;;12.30;99.90;;;;;;5053667;28;20086;-64
2023/01/01 09:08:11;;;;;;;7.57;4.82;;;12.50;99.90;;;;;;5053639;28;20099;-64
2023/01/01 09:10:37;;;;;;;7.65;5.15;;;12.50;99.90;;;;;;5053757;28;20049;-64
2023/01/01 09:13:03;;;;;;;8.13;5.03;;;12.50;99.90;;;;;;5053494;28;20031;-64
2023/01/01 09:15:29;;;;;;;9.85;4.78;;;12.70;99.90;;;;;;5053662;28;20497;-64
2023/01/01 09:17:55;;;;;;;9.27;4.95;;;12.70;99.90;;;;;;5053059;28;20017;-64
2023/01/01 09:20:21;;;;;;;6.32;4.38;;;12.60;99.90;;;;;;5053472;28;20025;-64
2023/01/01 09:22:47;;;;;;;6.80;4.40;;;12.50;99.90;;;;;;5053365;28;20496;-64
2023/01/01 09:25:12;;;;;;;10.63;4.63;;;12.50;99.90;;;;;;5053752;28;20041;-64
2023/01/01 09:27:38;;;;;;;8.80;5.15;;;12.50;99.90;;;;;;5053482;28;20059;-64
2023/01/01 09:30:04;;;;;;;10.25;5.07;;;12.40;99.90;;;;;;5052743;28;20029;-65
2023/01/01 09:32:30;;;;;;;9.05;5.45;;;12.50;99.90;;;;;;5053282;28;20025;-64
2023/01/01 09:34:56;;;;;;;10.68;5.75;;;12.50;99.90;;;;;;5053620;28;20032;-64
2023/01/01 09:37:23;;;;;;;11.63;6.28;;;12.70;99.90;;;;;;5053119;28;20029;-64
2023/01/01 09:39:49;;;;;;;8.40;5.05;;;12.60;99.90;;;;;;5052764;28;20060;-64
2023/01/01 09:42:15;;;;;;;8.20;5.35;;;12.70;99.90;;;;;;5052957;28;20032;-64
2023/01/01 09:45:06;;;;;;;7.50;4.72;;;12.80;99.90;;;;;;5052479;28;20489;-64
2023/01/01 09:47:45;;;;;;;6.70;4.30;;;12.70;99.90;;;;;;5052905;28;20025;-64
2023/01/01 09:50:44;;;;;;;9.30;4.55;;;12.70;99.90;;;;;;5053266;28;20108;-64
2023/01/01 09:53:38;;;;;;;7.55;4.57;;;12.90;99.90;;;;;;5053128;28;20033;-64
2023/01/01 09:56:04;;;;;;;9.70;4.82;;;12.80;99.90;;;;;;5052912;28;20466;-64
2023/01/01 09:58:34;;;;;;;9.23;4.20;;;12.90;99.90;;;;;;5052707;28;20452;-64
2023/01/01 10:01:24;;;;;;;9.85;4.72;;;13.10;99.90;;;;;;5051082;28;20029;-64
2023/01/01 10:04:14;;;;;;;11.98;5.05;;;13.20;99.90;;;;;;5052645;28;20047;-64
2023/01/01 10:06:46;;;;;;;9.23;4.38;;;13.30;99.90;;;;;;5052637;28;20036;-64
2023/01/01 10:09:12;;;;;;;7.75;4.38;;;13.30;99.90;;;;;;5052512;28;20179;-64
2023/01/01 10:12:02;;;;;;;8.45;4.32;;;13.30;99.90;;;;;;5052700;28;20108;-64
2023/01/01 10:14:42;;;;;;;9.90;4.03;;;13.50;99.90;;;;;;5052357;28;20082;-64
2023/01/01 10:17:42;;;;;;;6.55;4.00;;;13.60;99.90;;;;;;5052510;28;20049;-64
2023/01/01 10:20:31;;;;;;;8.48;4.50;;;13.80;99.90;;;;;;5050380;28;20037;-64
2023/01/01 10:23:03;;;;;;;7.03;4.07;;;14.00;99.90;;;;;;5052578;28;20425;-64
2023/01/01 10:25:32;;;;;;;6.40;4.20;;;14.20;99.90;;;;;;5052194;28;20029;-64
2023/01/01 10:28:06;;;;;;;6.95;4.15;;;14.40;99.90;;;;;;5052181;28;20079;-63
2023/01/01 10:30:31;;;;;;;7.68;3.65;;;14.60;99.90;;;;;;5052204;28;20389;-63
2023/01/01 10:32:58;;;;;;;10.35;4.00;;;14.70;99.90;;;;;;5052213;28;20036;-63
2023/01/01 10:35:49;;;;;;;7.90;4.00;;;15.20;99.90;;;;;;5052142;28;20064;-63
2023/01/01 10:38:24;;;;;;;11.05;3.88;;;15.30;99.90;;;;;;5047890;28;20124;-63
2023/01/01 10:40:52;;;;;;;10.50;3.65;;;15.40;99.90;;;;;;5051909;28;20524;-63
2023/01/01 10:43:18;;;;;;;5.60;3.22;;;15.50;99.90;;;;;;5051691;28;20082;-63
2023/01/01 10:45:51;;;;;;;7.70;3.35;;;17.30;99.90;;;;;;5051063;28;20029;-63
2023/01/01 10:48:24;;;;;;;6.70;3.50;;;17.80;99.90;;;;;;5052217;28;20052;-63
2023/01/01 10:50:51;;;;;;;;;;;16.50;99.90;;;;;;5051860;28;20055;-63
2023/01/01 10:53:25;;;;;;;6.35;3.42;;;16.50;99.90;;;;;;5052046;28;19932;-63
2023/01/01 10:56:16;;;;;;;7.82;4.10;;;16.40;99.90;;;;;;5052301;28;20486;-63
2023/01/01 10:58:53;;;;;;;9.32;3.60;;;16.70;99.90;;;;;;5051179;28;20143;-63
2023/01/01 11:01:32;;;;;;;7.65;4.10;;;16.60;99.90;;;;;;5051929;28;20108;-63
2023/01/01 11:04:18;;;;;;;9.85;5.28;;;17.40;99.90;;;;;;5051744;28;20493;-63
2023/01/01 11:06:48;;;;;;;9.93;4.55;;;17.70;99.90;;;;;;5052177;28;20025;-63
2023/01/01 11:09:20;;;;;;;11.38;4.35;;;17.30;99.90;;;;;;5051074;28;20573;-63
2023/01/01 11:11:55;;;;;;;9.90;4.25;;;17.20;99.90;;;;;;5051519;28;20067;-63
2023/01/01 11:14:47;;;;;;;9.20;4.10;;;17.10;99.90;;;;;;5051771;28;20096;-63
2023/01/01 11:17:23;;;;;;;10.25;5.20;;;17.10;99.90;;;;;;5051718;28;20025;-63
2023/01/01 11:19:50;;;;;;;10.68;3.97;;;17.10;99.90;;;;;;5051740;28;20029;-63
2023/01/01 11:22:34;;;;;;;7.72;3.47;;;17.00;99.90;;;;;;5051689;28;20029;-63
2023/01/01 11:25:02;;;;;;;8.48;4.00;;;17.00;99.90;;;;;;5051625;28;20144;-64
2023/01/01 11:27:28;;;;;;;9.50;4.18;;;16.70;99.90;;;;;;5051731;28;20021;-63
2023/01/01 11:30:24;;;;;;;10.02;3.80;;;16.70;99.90;;;;;;5051426;28;20474;-63
2023/01/01 11:32:54;;;;;;;11.73;4.35;;;16.50;99.90;;;;;;5051803;28;20135;-63
2023/01/01 11:35:22;;;;;;;7.38;4.20;;;16.90;99.90;;;;;;5051567;28;20524;-63
2023/01/01 11:37:50;;;;;;;8.07;4.10;;;17.20;99.90;;;;;;5051971;28;20488;-63
2023/01/01 11:40:26;;;;;;;6.82;3.58;;;17.70;99.90;;;;;;5051480;28;20112;-63
2023/01/01 11:42:59;;;;;;;8.63;4.45;;;17.40;99.90;;;;;;5051073;28;20056;-63
2023/01/01 11:45:30;;;;;;;7.78;3.78;;;17.10;99.90;;;;;;5051463;28;20021;-63
2023/01/01 11:47:59;;;;;;;7.00;3.40;;;16.90;99.90;;;;;;5051500;28;20030;-63
2023/01/01 11:50:33;;;;;;;9.73;3.35;;;16.80;99.90;;;;;;5051901;28;20036;-63
2023/01/01 11:53:22;;;;;;;7.70;2.70;;;17.10;99.90;;;;;;5051398;28;20036;-63
2023/01/01 11:55:53;;;;;;;6.00;3.40;;;17.30;99.90;;;;;;5051113;28;20021;-63
2023/01/01 11:58:28;;;;;;;6.65;3.00;;;17.20;99.90;;;;;;5051326;28;20072;-63
2023/01/01 12:01:00;;;;;;;7.97;3.25;;;17.10;99.90;;;;;;5051383;28;20024;-63
2023/01/01 12:03:46;;;;;;;9.00;3.42;;;17.10;99.90;;;;;;5054797;28;20053;-63
2023/01/01 12:06:18;;;;;;;4.53;2.90;;;17.20;99.90;;;;;;5054833;28;20039;-63
2023/01/01 12:08:50;;;;;;;6.35;2.83;;;17.30;99.90;;;;;;5054718;28;20067;-63
2023/01/01 12:11:32;;;;;;;8.52;3.17;;;17.40;99.90;;;;;;5054508;28;20057;-63
2023/01/01 12:14:25;;;;;;;8.45;3.45;;;17.50;99.90;;;;;;5054996;28;20032;-63
2023/01/01 12:17:17;;;;;;;8.43;2.90;;;17.60;99.90;;;;;;5054732;28;20025;-63
2023/01/01 12:19:49;;;;;;;6.68;3.38;;;17.70;99.90;;;;;;5047040;28;20083;-63
2023/01/01 12:22:17;;;;;;;6.95;3.33;;;17.80;99.90;;;;;;5053689;28;20096;-63
2023/01/01 12:24:44;;;;;;;11.38;3.45;;;17.90;99.90;;;;;;5054016;28;20040;-63
2023/01/01 12:27:15;;;;;;;8.63;3.08;;;18.00;99.90;;;;;;5054602;28;20512;-63
2023/01/01 12:30:02;;;;;;;6.00;2.88;;;18.10;99.90;;;;;;5054360;28;20129;-63
2023/01/01 12:32:51;;;;;;;7.65;2.53;;;18.30;99.90;;;;;;5054564;28;20021;-63
2023/01/01 12:35:50;;;;;;;9.35;2.80;;;18.40;99.90;;;;;;5054641;28;20035;-63
2023/01/01 12:38:34;;;;;;;8.52;2.72;;;18.50;99.90;;;;;;5054395;28;20024;-63
2023/01/01 12:41:12;;;;;;;8.05;2.58;;;18.50;99.90;;;;;;5054284;28;20087;-63
2023/01/01 12:43:56;;;;;;;8.15;2.78;;;18.30;99.90;;;;;;5054234;28;20033;-63
2023/01/01 12:46:25;;;;;;;9.60;3.00;;;18.20;99.90;;;;;;5054062;28;20481;-63
2023/01/01 12:49:12;;;;;;;7.60;2.80;;;18.00;99.90;;;;;;5054019;28;20048;-63
2023/01/01 12:52:01;;;;;;;8.45;2.88;;;17.90;99.90;;;;;;5054364;28;20079;-63
2023/01/01 12:54:46;;;;;;;9.43;2.95;;;17.80;99.90;;;;;;5053652;28;20032;-63
2023/01/01 12:57:40;;;;;;;5.70;2.90;;;17.70;99.90;;;;;;5053987;28;20029;-63
2023/01/01 13:00:16;;;;;;;6.70;3.50;;;17.70;99.90;;;;;;5053797;28;20386;-64
2023/01/01 13:03:20;;;;;;;11.40;3.35;;;17.70;99.90;;;;;;5053698;28;20182;-63
2023/01/01 13:05:50;;;;;;;7.87;3.40;;;17.70;99.90;;;;;;5050613;28;20041;-63
2023/01/01 13:08:16;;;;;;;9.20;3.42;;;17.60;99.90;;;;;;5053413;28;20047;-63
2023/01/01 13:10:45;;;;;;;9.23;3.28;;;17.70;99.90;;;;;;5053342;28;20561;-63
2023/01/01 13:13:12;;;;;;;8.63;2.83;;;17.70;99.90;;;;;;5052838;28;20029;-63
2023/01/01 13:15:38;;;;;;;6.70;2.80;;;17.80;99.90;;;;;;5053775;28;20032;-63
2023/01/01 13:18:13;;;;;;;8.00;2.85;;;17.90;99.90;;;;;;5053680;28;20028;-64